White Dolphin — FAB5315 — position and weather

sailwx.info

Track history (hours):
 
Tides and Currents Weather Stations Pressure Air Temp Water Temp Dewpoint Dewpoint Depression Visibility Wind Speed Wind Dir Waves Ship Positions

White Dolphin

Last reported at 2017-Aug-20 10:53 UTC. Time now 2017-Sep-22 08:36 UTC.
Position N 48°16' W 005°02'.
Warning: this ship's position is 32 days out of date.

Type: Sailing vessel. MMSI: 227527550.

Date/timePositionNaut miles runAvg speedWind from/ knotsBaromVisibWave heightAir tempDewpointWater temp
2017-Aug-20 10:53N 48°16' W 005°02'7 7.6
2017-Aug-20 09:58N 48°09' W 004°58'3 6.1
2017-Aug-20 09:30N 48°07' W 004°55'3 6.5
2017-Aug-20 09:00N 48°05' W 004°52'3 5.0
2017-Aug-20 08:30N 48°03' W 004°49'2 4.1
2017-Aug-20 08:00N 48°02' W 004°46'  
2017-Aug-17 09:53N 48°03' W 004°51'0 0.0
2017-Aug-17 08:53N 48°03' W 004°51'0 0.0
2017-Aug-16 11:46N 48°03' W 004°51'0 0.0
2017-Aug-16 11:25N 48°03' W 004°51'0 0.0
2017-Aug-16 10:49N 48°03' W 004°51'0 0.0
2017-Aug-16 10:28N 48°03' W 004°51'1 2.1
2017-Aug-16 09:47N 48°04' W 004°51'2 7.0
2017-Aug-16 09:30N 48°05' W 004°49'3 7.0
2017-Aug-16 09:00N 48°08' W 004°46'3 6.4
2017-Aug-16 08:30N 48°10' W 004°43'3 6.4
2017-Aug-16 08:00N 48°13' W 004°40'2 4.1
2017-Aug-16 07:30N 48°15' W 004°39'1 2.8
2017-Aug-16 07:00N 48°16' W 004°39'2 3.2
2017-Aug-16 06:30N 48°17' W 004°41'4 6.5
2017-Aug-16 05:53N 48°19' W 004°47'4 3.4
2017-Aug-16 04:48N 48°22' W 004°50'0 0.4
2017-Aug-16 03:58N 48°21' W 004°51'0 0.0
2017-Aug-15 21:44N 48°21' W 004°51'0 0.0
2017-Aug-15 21:26N 48°21' W 004°51'0 0.0
2017-Aug-15 20:53N 48°21' W 004°51'0 0.0
2017-Aug-15 15:53N 48°21' W 004°51'0 0.0
2017-Aug-15 14:54N 48°21' W 004°51'0 0.0
2017-Aug-15 14:17N 48°21' W 004°51'0 0.0
2017-Aug-15 13:53N 48°21' W 004°51'0 0.0
2017-Aug-15 12:53N 48°21' W 004°51'0 0.3
2017-Aug-15 12:29N 48°22' W 004°51'3 4.5
2017-Aug-15 11:53N 48°24' W 004°52'10 5.1
2017-Aug-15 09:58N 48°30' W 005°04'4 0.2
2017-Aug-14 15:37N 48°31' W 004°58'1 3.8
2017-Aug-14 15:27N 48°31' W 004°57'2 4.0
2017-Aug-14 14:58N 48°31' W 004°55'3 5.8
2017-Aug-14 14:30N 48°31' W 004°50'  
Track history (hours):
 
Tides and Currents Weather Stations Pressure Air Temp Water Temp Dewpoint Dewpoint Depression Visibility Wind Speed Wind Dir Waves Ship Positions

White Dolphin

Last reported at 2017-Aug-20 10:53 UTC. Time now 2017-Sep-22 08:36 UTC.
Position N 48°16' W 005°02'.
Warning: this ship's position is 32 days out of date.

Type: Sailing vessel. MMSI: 227527550.

Date/timePositionNaut miles runAvg speedWind from/ knotsBaromVisibWave heightAir tempDewpointWater temp
2017-Aug-20 10:53N 48°16' W 005°02'7 7.6
2017-Aug-20 09:58N 48°09' W 004°58'3 6.1
2017-Aug-20 09:30N 48°07' W 004°55'3 6.5
2017-Aug-20 09:00N 48°05' W 004°52'3 5.0
2017-Aug-20 08:30N 48°03' W 004°49'2 4.1
2017-Aug-20 08:00N 48°02' W 004°46'  
2017-Aug-17 09:53N 48°03' W 004°51'0 0.0
2017-Aug-17 08:53N 48°03' W 004°51'0 0.0
2017-Aug-16 11:46N 48°03' W 004°51'0 0.0
2017-Aug-16 11:25N 48°03' W 004°51'0 0.0
2017-Aug-16 10:49N 48°03' W 004°51'0 0.0
2017-Aug-16 10:28N 48°03' W 004°51'1 2.1
2017-Aug-16 09:47N 48°04' W 004°51'2 7.0
2017-Aug-16 09:30N 48°05' W 004°49'3 7.0
2017-Aug-16 09:00N 48°08' W 004°46'3 6.4
2017-Aug-16 08:30N 48°10' W 004°43'3 6.4
2017-Aug-16 08:00N 48°13' W 004°40'2 4.1
2017-Aug-16 07:30N 48°15' W 004°39'1 2.8
2017-Aug-16 07:00N 48°16' W 004°39'2 3.2
2017-Aug-16 06:30N 48°17' W 004°41'4 6.5
2017-Aug-16 05:53N 48°19' W 004°47'4 3.4
2017-Aug-16 04:48N 48°22' W 004°50'0 0.4
2017-Aug-16 03:58N 48°21' W 004°51'0 0.0
2017-Aug-15 21:44N 48°21' W 004°51'0 0.0
2017-Aug-15 21:26N 48°21' W 004°51'0 0.0
2017-Aug-15 20:53N 48°21' W 004°51'0 0.0
2017-Aug-15 15:53N 48°21' W 004°51'0 0.0
2017-Aug-15 14:54N 48°21' W 004°51'0 0.0
2017-Aug-15 14:17N 48°21' W 004°51'0 0.0
2017-Aug-15 13:53N 48°21' W 004°51'0 0.0
2017-Aug-15 12:53N 48°21' W 004°51'0 0.3
2017-Aug-15 12:29N 48°22' W 004°51'3 4.5
2017-Aug-15 11:53N 48°24' W 004°52'10 5.1
2017-Aug-15 09:58N 48°30' W 005°04'4 0.2
2017-Aug-14 15:37N 48°31' W 004°58'1 3.8
2017-Aug-14 15:27N 48°31' W 004°57'2 4.0
2017-Aug-14 14:58N 48°31' W 004°55'3 5.8
2017-Aug-14 14:30N 48°31' W 004°50'  

Dump ship's entire track history